sensor_id;sensor_type;location;lat;lon;timestamp;temperature;humidity
6627;DHT22;3349;49.830;8.748;2022-12-18T00:01:57;-9.00;89.60
6627;DHT22;3349;49.830;8.748;2022-12-18T00:04:27;-9.10;89.00
6627;DHT22;3349;49.830;8.748;2022-12-18T00:06:54;-9.10;88.70
6627;DHT22;3349;49.830;8.748;2022-12-18T00:09:20;-9.20;87.70
6627;DHT22;3349;49.830;8.748;2022-12-18T00:11:47;-9.30;87.70
6627;DHT22;3349;49.830;8.748;2022-12-18T00:14:14;-9.30;88.00
6627;DHT22;3349;49.830;8.748;2022-12-18T00:16:44;-9.30;88.30
6627;DHT22;3349;49.830;8.748;2022-12-18T00:19:11;-9.30;88.10
6627;DHT22;3349;49.830;8.748;2022-12-18T00:21:40;-9.30;88.10
6627;DHT22;3349;49.830;8.748;2022-12-18T00:24:07;-9.40;87.90
6627;DHT22;3349;49.830;8.748;2022-12-18T00:26:34;-9.40;87.70
6627;DHT22;3349;49.830;8.748;2022-12-18T00:29:04;-9.40;87.70
6627;DHT22;3349;49.830;8.748;2022-12-18T00:31:31;-9.50;87.50
6627;DHT22;3349;49.830;8.748;2022-12-18T00:33:58;-9.40;87.50
6627;DHT22;3349;49.830;8.748;2022-12-18T00:36:26;-9.50;87.20
6627;DHT22;3349;49.830;8.748;2022-12-18T00:38:56;-9.50;87.20
6627;DHT22;3349;49.830;8.748;2022-12-18T00:41:23;-9.60;86.60
6627;DHT22;3349;49.830;8.748;2022-12-18T00:44:10;-9.60;86.40
6627;DHT22;3349;49.830;8.748;2022-12-18T00:46:37;-9.60;86.10
6627;DHT22;3349;49.830;8.748;2022-12-18T00:49:04;-9.60;86.40
6627;DHT22;3349;49.830;8.748;2022-12-18T00:51:31;-9.50;86.60
6627;DHT22;3349;49.830;8.748;2022-12-18T00:53:59;-9.50;87.00
6627;DHT22;3349;49.830;8.748;2022-12-18T00:56:26;-9.50;87.20
6627;DHT22;3349;49.830;8.748;2022-12-18T00:58:53;-9.50;87.40
6627;DHT22;3349;49.830;8.748;2022-12-18T01:01:20;-9.50;87.20
6627;DHT22;3349;49.830;8.748;2022-12-18T01:03:46;-9.50;86.90
6627;DHT22;3349;49.830;8.748;2022-12-18T01:06:14;-9.50;87.00
6627;DHT22;3349;49.830;8.748;2022-12-18T01:08:41;-9.50;87.20
6627;DHT22;3349;49.830;8.748;2022-12-18T01:11:11;-9.50;87.10
6627;DHT22;3349;49.830;8.748;2022-12-18T01:13:39;-9.60;86.40
6627;DHT22;3349;49.830;8.748;2022-12-18T01:16:06;-9.60;86.40
6627;DHT22;3349;49.830;8.748;2022-12-18T01:18:34;-9.60;86.40
6627;DHT22;3349;49.830;8.748;2022-12-18T01:21:02;-9.70;85.50
6627;DHT22;3349;49.830;8.748;2022-12-18T01:23:31;-9.70;85.30
6627;DHT22;3349;49.830;8.748;2022-12-18T01:25:58;-9.70;84.90
6627;DHT22;3349;49.830;8.748;2022-12-18T01:28:26;-9.70;84.70
6627;DHT22;3349;49.830;8.748;2022-12-18T01:30:52;-9.70;84.60
6627;DHT22;3349;49.830;8.748;2022-12-18T01:33:19;-9.80;84.40
6627;DHT22;3349;49.830;8.748;2022-12-18T01:35:46;-9.80;84.50
6627;DHT22;3349;49.830;8.748;2022-12-18T01:38:12;-9.80;84.60
6627;DHT22;3349;49.830;8.748;2022-12-18T01:40:39;-9.70;84.60
6627;DHT22;3349;49.830;8.748;2022-12-18T01:43:09;-9.70;84.90
6627;DHT22;3349;49.830;8.748;2022-12-18T01:45:37;-9.70;85.40
6627;DHT22;3349;49.830;8.748;2022-12-18T01:48:06;-9.60;85.80
6627;DHT22;3349;49.830;8.748;2022-12-18T01:50:36;-9.60;85.70
6627;DHT22;3349;49.830;8.748;2022-12-18T01:53:07;-9.60;84.40
6627;DHT22;3349;49.830;8.748;2022-12-18T01:55:40;-9.70;84.60
6627;DHT22;3349;49.830;8.748;2022-12-18T01:58:09;-9.70;83.90
6627;DHT22;3349;49.830;8.748;2022-12-18T02:00:38;-9.70;84.10
6627;DHT22;3349;49.830;8.748;2022-12-18T02:03:05;-9.70;83.20
6627;DHT22;3349;49.830;8.748;2022-12-18T02:05:39;-9.80;82.10
6627;DHT22;3349;49.830;8.748;2022-12-18T02:08:10;-9.80;82.10
6627;DHT22;3349;49.830;8.748;2022-12-18T02:10:45;-9.90;81.50
6627;DHT22;3349;49.830;8.748;2022-12-18T02:13:18;-9.90;81.70
6627;DHT22;3349;49.830;8.748;2022-12-18T02:15:52;-10.00;81.00
6627;DHT22;3349;49.830;8.748;2022-12-18T02:18:23;-10.00;80.30
6627;DHT22;3349;49.830;8.748;2022-12-18T02:20:55;-10.00;80.70
6627;DHT22;3349;49.830;8.748;2022-12-18T02:23:41;-10.00;81.10
6627;DHT22;3349;49.830;8.748;2022-12-18T02:26:18;-10.00;81.30
6627;DHT22;3349;49.830;8.748;2022-12-18T02:28:49;-10.00;81.30
6627;DHT22;3349;49.830;8.748;2022-12-18T02:31:21;-10.00;81.40
6627;DHT22;3349;49.830;8.748;2022-12-18T02:33:51;-10.00;80.90
6627;DHT22;3349;49.830;8.748;2022-12-18T02:36:20;-10.00;80.10
6627;DHT22;3349;49.830;8.748;2022-12-18T02:38:47;-10.00;79.90
6627;DHT22;3349;49.830;8.748;2022-12-18T02:41:16;-10.10;79.00
6627;DHT22;3349;49.830;8.748;2022-12-18T02:43:47;-10.10;79.00
6627;DHT22;3349;49.830;8.748;2022-12-18T02:46:28;-10.20;78.40
6627;DHT22;3349;49.830;8.748;2022-12-18T02:49:01;-10.20;78.60
6627;DHT22;3349;49.830;8.748;2022-12-18T02:51:37;-10.20;78.80
6627;DHT22;3349;49.830;8.748;2022-12-18T02:54:09;-10.20;79.00
6627;DHT22;3349;49.830;8.748;2022-12-18T02:56:41;-10.20;79.10
6627;DHT22;3349;49.830;8.748;2022-12-18T02:59:14;-10.20;79.20
6627;DHT22;3349;49.830;8.748;2022-12-18T03:01:50;-10.10;79.60
6627;DHT22;3349;49.830;8.748;2022-12-18T03:04:22;-10.00;81.10
6627;DHT22;3349;49.830;8.748;2022-12-18T03:06:55;-10.00;81.90
6627;DHT22;3349;49.830;8.748;2022-12-18T03:09:27;-9.90;82.70
6627;DHT22;3349;49.830;8.748;2022-12-18T03:12:04;-9.80;83.50
6627;DHT22;3349;49.830;8.748;2022-12-18T03:14:54;-9.70;84.50
6627;DHT22;3349;49.830;8.748;2022-12-18T03:17:25;-9.60;84.50
6627;DHT22;3349;49.830;8.748;2022-12-18T03:19:54;-9.60;84.40
6627;DHT22;3349;49.830;8.748;2022-12-18T03:22:23;-9.60;84.40
6627;DHT22;3349;49.830;8.748;2022-12-18T03:24:54;-9.60;84.00
6627;DHT22;3349;49.830;8.748;2022-12-18T03:27:24;-9.60;84.40
6627;DHT22;3349;49.830;8.748;2022-12-18T03:29:56;-9.30;85.40
6627;DHT22;3349;49.830;8.748;2022-12-18T03:32:35;-9.50;85.70
6627;DHT22;3349;49.830;8.748;2022-12-18T03:35:06;-9.50;86.50
6627;DHT22;3349;49.830;8.748;2022-12-18T03:37:33;-9.50;86.50
6627;DHT22;3349;49.830;8.748;2022-12-18T03:40:01;-9.40;87.00
6627;DHT22;3349;49.830;8.748;2022-12-18T03:42:33;-9.40;87.20
6627;DHT22;3349;49.830;8.748;2022-12-18T03:45:09;-9.40;87.20
6627;DHT22;3349;49.830;8.748;2022-12-18T03:47:39;-9.40;87.10
6627;DHT22;3349;49.830;8.748;2022-12-18T03:50:14;-9.40;87.30
6627;DHT22;3349;49.830;8.748;2022-12-18T03:52:46;-9.40;87.00
6627;DHT22;3349;49.830;8.748;2022-12-18T03:55:15;-9.40;86.60
6627;DHT22;3349;49.830;8.748;2022-12-18T03:57:46;-9.40;86.30
6627;DHT22;3349;49.830;8.748;2022-12-18T04:00:16;-9.50;85.70
6627;DHT22;3349;49.830;8.748;2022-12-18T04:02:47;-9.40;85.80
6627;DHT22;3349;49.830;8.748;2022-12-18T04:05:15;-9.40;86.10
6627;DHT22;3349;49.830;8.748;2022-12-18T04:07:45;-9.40;86.30
6627;DHT22;3349;49.830;8.748;2022-12-18T04:10:13;-9.40;86.60
6627;DHT22;3349;49.830;8.748;2022-12-18T04:12:41;-9.40;86.70
6627;DHT22;3349;49.830;8.748;2022-12-18T04:15:11;-9.40;86.70
6627;DHT22;3349;49.830;8.748;2022-12-18T04:17:38;-9.40;86.90
6627;DHT22;3349;49.830;8.748;2022-12-18T04:20:06;-9.40;87.20
6627;DHT22;3349;49.830;8.748;2022-12-18T04:22:32;-9.40;87.50
6627;DHT22;3349;49.830;8.748;2022-12-18T04:24:59;-9.40;87.70
6627;DHT22;3349;49.830;8.748;2022-12-18T04:27:26;-9.40;87.70
6627;DHT22;3349;49.830;8.748;2022-12-18T04:29:52;-9.30;88.70
6627;DHT22;3349;49.830;8.748;2022-12-18T04:32:20;-9.20;88.50
6627;DHT22;3349;49.830;8.748;2022-12-18T04:34:47;-9.20;87.90
6627;DHT22;3349;49.830;8.748;2022-12-18T04:37:14;-9.30;87.10
6627;DHT22;3349;49.830;8.748;2022-12-18T04:39:41;-9.30;86.70
6627;DHT22;3349;49.830;8.748;2022-12-18T04:42:07;-9.40;85.80
6627;DHT22;3349;49.830;8.748;2022-12-18T04:44:34;-9.40;85.30
6627;DHT22;3349;49.830;8.748;2022-12-18T04:47:01;-9.50;85.10
6627;DHT22;3349;49.830;8.748;2022-12-18T04:49:29;-9.50;85.00
6627;DHT22;3349;49.830;8.748;2022-12-18T04:51:56;-9.40;85.10
6627;DHT22;3349;49.830;8.748;2022-12-18T04:54:22;-9.50;84.70
6627;DHT22;3349;49.830;8.748;2022-12-18T04:56:49;-9.50;84.60
6627;DHT22;3349;49.830;8.748;2022-12-18T04:59:16;-9.60;82.90
6627;DHT22;3349;49.830;8.748;2022-12-18T05:01:42;-9.70;82.20
6627;DHT22;3349;49.830;8.748;2022-12-18T05:04:11;-9.70;82.20
6627;DHT22;3349;49.830;8.748;2022-12-18T05:06:39;-9.70;82.20
6627;DHT22;3349;49.830;8.748;2022-12-18T05:09:06;-9.70;82.20
6627;DHT22;3349;49.830;8.748;2022-12-18T05:11:36;-9.70;82.20
6627;DHT22;3349;49.830;8.748;2022-12-18T05:14:03;-9.70;82.20
6627;DHT22;3349;49.830;8.748;2022-12-18T05:16:30;-9.70;82.30
6627;DHT22;3349;49.830;8.748;2022-12-18T05:18:57;-9.70;82.20
6627;DHT22;3349;49.830;8.748;2022-12-18T05:21:23;-9.70;82.20
6627;DHT22;3349;49.830;8.748;2022-12-18T05:23:51;-9.70;82.10
6627;DHT22;3349;49.830;8.748;2022-12-18T05:26:18;-9.80;81.60
6627;DHT22;3349;49.830;8.748;2022-12-18T05:28:45;-9.80;81.40
6627;DHT22;3349;49.830;8.748;2022-12-18T05:31:13;-9.80;81.20
6627;DHT22;3349;49.830;8.748;2022-12-18T05:33:39;-9.80;80.60
6627;DHT22;3349;49.830;8.748;2022-12-18T05:36:08;-9.90;80.20
6627;DHT22;3349;49.830;8.748;2022-12-18T05:38:36;-9.90;79.70
6627;DHT22;3349;49.830;8.748;2022-12-18T05:41:05;-10.00;79.40
6627;DHT22;3349;49.830;8.748;2022-12-18T05:43:34;-10.00;79.60
6627;DHT22;3349;49.830;8.748;2022-12-18T05:46:04;-9.90;79.70
6627;DHT22;3349;49.830;8.748;2022-12-18T05:48:31;-10.00;79.60
6627;DHT22;3349;49.830;8.748;2022-12-18T05:51:04;-10.00;79.00
6627;DHT22;3349;49.830;8.748;2022-12-18T05:53:31;-10.10;78.00
6627;DHT22;3349;49.830;8.748;2022-12-18T05:56:00;-10.10;77.90
6627;DHT22;3349;49.830;8.748;2022-12-18T05:58:29;-10.00;78.90
6627;DHT22;3349;49.830;8.748;2022-12-18T06:00:55;-10.10;77.70
6627;DHT22;3349;49.830;8.748;2022-12-18T06:03:22;-10.10;77.80
6627;DHT22;3349;49.830;8.748;2022-12-18T06:05:49;-10.10;77.70
6627;DHT22;3349;49.830;8.748;2022-12-18T06:08:16;-10.10;77.70
6627;DHT22;3349;49.830;8.748;2022-12-18T06:10:50;-10.10;77.70
6627;DHT22;3349;49.830;8.748;2022-12-18T06:13:17;-10.10;77.50
6627;DHT22;3349;49.830;8.748;2022-12-18T06:15:45;-10.10;77.70
6627;DHT22;3349;49.830;8.748;2022-12-18T06:18:12;-10.10;77.50
6627;DHT22;3349;49.830;8.748;2022-12-18T06:20:39;-10.10;77.40
6627;DHT22;3349;49.830;8.748;2022-12-18T06:23:06;-10.10;77.30
6627;DHT22;3349;49.830;8.748;2022-12-18T06:25:37;-10.10;77.30
6627;DHT22;3349;49.830;8.748;2022-12-18T06:28:04;-10.10;77.20
6627;DHT22;3349;49.830;8.748;2022-12-18T06:30:31;-10.10;77.10
6627;DHT22;3349;49.830;8.748;2022-12-18T06:32:59;-10.10;76.90
6627;DHT22;3349;49.830;8.748;2022-12-18T06:35:26;-10.10;76.90
6627;DHT22;3349;49.830;8.748;2022-12-18T06:37:53;-10.10;76.90
6627;DHT22;3349;49.830;8.748;2022-12-18T06:40:19;-10.10;76.80
6627;DHT22;3349;49.830;8.748;2022-12-18T06:42:46;-10.10;76.40
6627;DHT22;3349;49.830;8.748;2022-12-18T06:45:16;-10.20;76.00
6627;DHT22;3349;49.830;8.748;2022-12-18T06:47:43;-10.10;76.40
6627;DHT22;3349;49.830;8.748;2022-12-18T06:50:11;-10.10;76.50
6627;DHT22;3349;49.830;8.748;2022-12-18T06:52:38;-10.10;76.60
6627;DHT22;3349;49.830;8.748;2022-12-18T06:55:11;-10.10;76.80
6627;DHT22;3349;49.830;8.748;2022-12-18T06:57:38;-10.10;76.90
6627;DHT22;3349;49.830;8.748;2022-12-18T07:00:06;-10.10;76.50
6627;DHT22;3349;49.830;8.748;2022-12-18T07:02:33;-10.10;76.30
6627;DHT22;3349;49.830;8.748;2022-12-18T07:05:00;-10.20;77.00
6627;DHT22;3349;49.830;8.748;2022-12-18T07:07:28;-10.20;77.20
6627;DHT22;3349;49.830;8.748;2022-12-18T07:09:55;-10.10;77.50
6627;DHT22;3349;49.830;8.748;2022-12-18T07:12:22;-10.10;77.70
6627;DHT22;3349;49.830;8.748;2022-12-18T07:14:49;-10.10;77.70
6627;DHT22;3349;49.830;8.748;2022-12-18T07:17:16;-10.10;77.70
6627;DHT22;3349;49.830;8.748;2022-12-18T07:19:42;-10.00;77.80
6627;DHT22;3349;49.830;8.748;2022-12-18T07:22:09;-10.00;77.50
6627;DHT22;3349;49.830;8.748;2022-12-18T07:24:37;-10.00;77.20
6627;DHT22;3349;49.830;8.748;2022-12-18T07:27:04;-9.90;77.10
6627;DHT22;3349;49.830;8.748;2022-12-18T07:29:34;-9.90;77.50
6627;DHT22;3349;49.830;8.748;2022-12-18T07:32:01;-10.00;76.10
6627;DHT22;3349;49.830;8.748;2022-12-18T07:34:27;-10.00;76.30
6627;DHT22;3349;49.830;8.748;2022-12-18T07:36:54;-10.00;76.30
6627;DHT22;3349;49.830;8.748;2022-12-18T07:39:21;-9.90;76.20
6627;DHT22;3349;49.830;8.748;2022-12-18T07:41:49;-9.90;76.40
6627;DHT22;3349;49.830;8.748;2022-12-18T07:44:39;-9.90;76.60
6627;DHT22;3349;49.830;8.748;2022-12-18T07:47:05;-9.80;76.90
6627;DHT22;3349;49.830;8.748;2022-12-18T07:49:32;-9.70;77.20
6627;DHT22;3349;49.830;8.748;2022-12-18T07:51:59;-9.60;75.10
6627;DHT22;3349;49.830;8.748;2022-12-18T07:54:27;-9.80;73.80
6627;DHT22;3349;49.830;8.748;2022-12-18T07:56:55;-10.00;72.20
6627;DHT22;3349;49.830;8.748;2022-12-18T07:59:21;-10.00;72.40
6627;DHT22;3349;49.830;8.748;2022-12-18T08:01:48;-10.10;71.80
6627;DHT22;3349;49.830;8.748;2022-12-18T08:04:15;-10.10;72.00
6627;DHT22;3349;49.830;8.748;2022-12-18T08:06:41;-10.20;71.10
6627;DHT22;3349;49.830;8.748;2022-12-18T08:09:10;-10.20;71.60
6627;DHT22;3349;49.830;8.748;2022-12-18T08:11:36;-10.20;72.20
6627;DHT22;3349;49.830;8.748;2022-12-18T08:14:05;-10.10;72.90
6627;DHT22;3349;49.830;8.748;2022-12-18T08:16:31;-10.00;73.60
6627;DHT22;3349;49.830;8.748;2022-12-18T08:18:58;-9.90;73.30
6627;DHT22;3349;49.830;8.748;2022-12-18T08:21:26;-9.90;72.80
6627;DHT22;3349;49.830;8.748;2022-12-18T08:23:55;-9.90;72.80
6627;DHT22;3349;49.830;8.748;2022-12-18T08:26:22;-9.80;72.80
6627;DHT22;3349;49.830;8.748;2022-12-18T08:28:50;-9.80;72.70
6627;DHT22;3349;49.830;8.748;2022-12-18T08:31:18;-9.70;73.20
6627;DHT22;3349;49.830;8.748;2022-12-18T08:33:48;-9.70;73.60
6627;DHT22;3349;49.830;8.748;2022-12-18T08:36:15;-9.60;74.00
6627;DHT22;3349;49.830;8.748;2022-12-18T08:38:42;-9.50;74.10
6627;DHT22;3349;49.830;8.748;2022-12-18T08:41:10;-9.50;74.10
6627;DHT22;3349;49.830;8.748;2022-12-18T08:43:37;-9.40;75.00
6627;DHT22;3349;49.830;8.748;2022-12-18T08:46:25;-9.30;75.80
6627;DHT22;3349;49.830;8.748;2022-12-18T08:48:53;-9.10;78.00
6627;DHT22;3349;49.830;8.748;2022-12-18T08:51:21;-9.00;78.40
6627;DHT22;3349;49.830;8.748;2022-12-18T08:53:47;-8.80;78.70
6627;DHT22;3349;49.830;8.748;2022-12-18T08:56:15;-8.80;78.70
6627;DHT22;3349;49.830;8.748;2022-12-18T08:58:42;-8.70;78.90
6627;DHT22;3349;49.830;8.748;2022-12-18T09:01:10;-8.60;79.10
6627;DHT22;3349;49.830;8.748;2022-12-18T09:03:39;-8.40;80.00
6627;DHT22;3349;49.830;8.748;2022-12-18T09:06:06;-8.30;80.80
6627;DHT22;3349;49.830;8.748;2022-12-18T09:08:36;-8.10;82.30
6627;DHT22;3349;49.830;8.748;2022-12-18T09:11:03;-8.00;83.80
6627;DHT22;3349;49.830;8.748;2022-12-18T09:13:30;-7.80;84.00
6627;DHT22;3349;49.830;8.748;2022-12-18T09:15:56;-7.70;84.10
6627;DHT22;3349;49.830;8.748;2022-12-18T09:18:24;-7.60;84.90
6627;DHT22;3349;49.830;8.748;2022-12-18T09:20:52;-7.50;84.30
6627;DHT22;3349;49.830;8.748;2022-12-18T09:23:19;-7.40;84.40
6627;DHT22;3349;49.830;8.748;2022-12-18T09:25:46;-7.30;84.50
6627;DHT22;3349;49.830;8.748;2022-12-18T09:28:17;-7.20;84.60
6627;DHT22;3349;49.830;8.748;2022-12-18T09:30:46;-7.10;84.70
6627;DHT22;3349;49.830;8.748;2022-12-18T09:33:14;-7.00;85.40
6627;DHT22;3349;49.830;8.748;2022-12-18T09:35:42;-6.80;85.20
6627;DHT22;3349;49.830;8.748;2022-12-18T09:38:13;-6.80;85.00
6627;DHT22;3349;49.830;8.748;2022-12-18T09:40:43;-6.70;85.10
6627;DHT22;3349;49.830;8.748;2022-12-18T09:43:16;-6.50;85.20
6627;DHT22;3349;49.830;8.748;2022-12-18T09:45:46;-6.40;85.30
6627;DHT22;3349;49.830;8.748;2022-12-18T09:48:17;-6.30;85.40
6627;DHT22;3349;49.830;8.748;2022-12-18T09:50:46;-6.20;85.50
6627;DHT22;3349;49.830;8.748;2022-12-18T09:53:18;-6.10;85.60
6627;DHT22;3349;49.830;8.748;2022-12-18T09:55:47;-6.00;85.70
6627;DHT22;3349;49.830;8.748;2022-12-18T09:58:19;-5.80;85.90
6627;DHT22;3349;49.830;8.748;2022-12-18T10:00:46;-5.70;85.40
6627;DHT22;3349;49.830;8.748;2022-12-18T10:03:14;-5.50;85.50
6627;DHT22;3349;49.830;8.748;2022-12-18T10:05:46;-5.40;83.10
6627;DHT22;3349;49.830;8.748;2022-12-18T10:08:20;-5.30;82.10
6627;DHT22;3349;49.830;8.748;2022-12-18T10:10:50;-5.20;80.00
6627;DHT22;3349;49.830;8.748;2022-12-18T10:13:23;-5.10;79.70
6627;DHT22;3349;49.830;8.748;2022-12-18T10:16:02;-5.00;78.30
6627;DHT22;3349;49.830;8.748;2022-12-18T10:18:40;-5.00;78.30
6627;DHT22;3349;49.830;8.748;2022-12-18T10:21:11;-4.90;78.00
6627;DHT22;3349;49.830;8.748;2022-12-18T10:23:45;-5.00;76.20
6627;DHT22;3349;49.830;8.748;2022-12-18T10:26:14;-4.90;76.70
6627;DHT22;3349;49.830;8.748;2022-12-18T10:28:41;-4.80;76.10
6627;DHT22;3349;49.830;8.748;2022-12-18T10:31:15;-4.80;76.10
6627;DHT22;3349;49.830;8.748;2022-12-18T10:33:43;-4.80;75.10
6627;DHT22;3349;49.830;8.748;2022-12-18T10:36:11;-4.70;75.00
6627;DHT22;3349;49.830;8.748;2022-12-18T10:38:39;-4.70;74.40
6627;DHT22;3349;49.830;8.748;2022-12-18T10:41:22;-4.50;74.50
6627;DHT22;3349;49.830;8.748;2022-12-18T10:44:11;-4.40;73.70
6627;DHT22;3349;49.830;8.748;2022-12-18T10:46:38;-4.30;72.10
6627;DHT22;3349;49.830;8.748;2022-12-18T10:49:05;-4.10;70.70
6627;DHT22;3349;49.830;8.748;2022-12-18T10:51:33;-4.10;70.60
6627;DHT22;3349;49.830;8.748;2022-12-18T10:54:04;-4.00;70.70
6627;DHT22;3349;49.830;8.748;2022-12-18T10:56:33;-3.90;70.80
6627;DHT22;3349;49.830;8.748;2022-12-18T10:59:03;-3.70;70.10
6627;DHT22;3349;49.830;8.748;2022-12-18T11:01:46;-3.60;68.10
6627;DHT22;3349;49.830;8.748;2022-12-18T11:04:18;-3.40;68.30
6627;DHT22;3349;49.830;8.748;2022-12-18T11:07:03;-3.30;67.00
6627;DHT22;3349;49.830;8.748;2022-12-18T11:09:32;-3.40;67.00
6627;DHT22;3349;49.830;8.748;2022-12-18T11:12:01;-3.20;67.10
6627;DHT22;3349;49.830;8.748;2022-12-18T11:14:30;-3.10;67.20
6627;DHT22;3349;49.830;8.748;2022-12-18T11:17:00;-3.10;66.40
6627;DHT22;3349;49.830;8.748;2022-12-18T11:19:32;-2.90;66.30
6627;DHT22;3349;49.830;8.748;2022-12-18T11:22:01;-3.00;66.00
6627;DHT22;3349;49.830;8.748;2022-12-18T11:24:32;-2.90;66.10
6627;DHT22;3349;49.830;8.748;2022-12-18T11:27:02;-2.80;65.90
6627;DHT22;3349;49.830;8.748;2022-12-18T11:29:33;-2.80;65.00
6627;DHT22;3349;49.830;8.748;2022-12-18T11:32:28;-2.60;65.30
6627;DHT22;3349;49.830;8.748;2022-12-18T11:35:02;-2.50;64.90
6627;DHT22;3349;49.830;8.748;2022-12-18T11:37:29;-2.20;63.60
6627;DHT22;3349;49.830;8.748;2022-12-18T11:40:02;-2.20;63.60
6627;DHT22;3349;49.830;8.748;2022-12-18T11:42:35;-2.10;62.00
6627;DHT22;3349;49.830;8.748;2022-12-18T11:45:20;-2.20;62.80
6627;DHT22;3349;49.830;8.748;2022-12-18T11:47:54;-2.00;63.10
6627;DHT22;3349;49.830;8.748;2022-12-18T11:50:24;-1.90;63.30
6627;DHT22;3349;49.830;8.748;2022-12-18T11:52:52;-1.80;61.80
6627;DHT22;3349;49.830;8.748;2022-12-18T11:55:27;-1.80;61.60
6627;DHT22;3349;49.830;8.748;2022-12-18T11:57:59;-1.70;61.60
6627;DHT22;3349;49.830;8.748;2022-12-18T12:00:30;-1.70;61.00
6627;DHT22;3349;49.830;8.748;2022-12-18T12:03:12;-1.30;61.00
6627;DHT22;3349;49.830;8.748;2022-12-18T12:05:48;-1.50;59.80
6627;DHT22;3349;49.830;8.748;2022-12-18T12:08:22;-1.40;60.70
6627;DHT22;3349;49.830;8.748;2022-12-18T12:11:03;-1.50;60.10
6627;DHT22;3349;49.830;8.748;2022-12-18T12:13:39;-1.30;60.00
6627;DHT22;3349;49.830;8.748;2022-12-18T12:16:16;-1.30;60.00
6627;DHT22;3349;49.830;8.748;2022-12-18T12:18:55;-1.40;59.20
6627;DHT22;3349;49.830;8.748;2022-12-18T12:21:28;-1.30;60.00
6627;DHT22;3349;49.830;8.748;2022-12-18T12:24:04;-1.40;59.90
6627;DHT22;3349;49.830;8.748;2022-12-18T12:26:38;-1.50;60.30
6627;DHT22;3349;49.830;8.748;2022-12-18T12:29:23;-1.50;60.50
6627;DHT22;3349;49.830;8.748;2022-12-18T12:32:01;-1.60;60.90
6627;DHT22;3349;49.830;8.748;2022-12-18T12:34:36;-1.70;61.50
6627;DHT22;3349;49.830;8.748;2022-12-18T12:37:19;-1.80;61.60
6627;DHT22;3349;49.830;8.748;2022-12-18T12:39:51;-1.80;63.00
6627;DHT22;3349;49.830;8.748;2022-12-18T12:42:26;-1.90;62.60
6627;DHT22;3349;49.830;8.748;2022-12-18T12:45:18;-1.90;63.10
6627;DHT22;3349;49.830;8.748;2022-12-18T12:47:48;-1.90;63.90
6627;DHT22;3349;49.830;8.748;2022-12-18T12:50:17;-1.90;63.20
6627;DHT22;3349;49.830;8.748;2022-12-18T12:52:47;-2.00;63.80
6627;DHT22;3349;49.830;8.748;2022-12-18T12:55:19;-2.00;63.80
6627;DHT22;3349;49.830;8.748;2022-12-18T12:57:55;-2.00;63.80
6627;DHT22;3349;49.830;8.748;2022-12-18T13:00:24;-2.00;63.80
6627;DHT22;3349;49.830;8.748;2022-12-18T13:02:59;-2.00;63.80
6627;DHT22;3349;49.830;8.748;2022-12-18T13:05:31;-2.10;63.70
6627;DHT22;3349;49.830;8.748;2022-12-18T13:08:03;-2.10;63.70
6627;DHT22;3349;49.830;8.748;2022-12-18T13:10:33;-2.10;64.40
6627;DHT22;3349;49.830;8.748;2022-12-18T13:13:04;-2.30;64.60
6627;DHT22;3349;49.830;8.748;2022-12-18T13:15:34;-2.20;65.80
6627;DHT22;3349;49.830;8.748;2022-12-18T13:18:05;-2.30;66.00
6627;DHT22;3349;49.830;8.748;2022-12-18T13:20:37;-2.40;66.20
6627;DHT22;3349;49.830;8.748;2022-12-18T13:23:26;-2.40;66.70
6627;DHT22;3349;49.830;8.748;2022-12-18T13:25:54;-2.40;67.00
6627;DHT22;3349;49.830;8.748;2022-12-18T13:28:26;-2.40;67.90
6627;DHT22;3349;49.830;8.748;2022-12-18T13:31:11;-2.50;67.70
6627;DHT22;3349;49.830;8.748;2022-12-18T13:33:43;-2.50;67.90
6627;DHT22;3349;49.830;8.748;2022-12-18T13:36:26;-2.50;68.60
6627;DHT22;3349;49.830;8.748;2022-12-18T13:39:22;-2.30;69.40
6627;DHT22;3349;49.830;8.748;2022-12-18T13:41:51;-2.40;68.50
6627;DHT22;3349;49.830;8.748;2022-12-18T13:44:32;-2.40;69.00
6627;DHT22;3349;49.830;8.748;2022-12-18T13:47:00;-2.60;69.60
6627;DHT22;3349;49.830;8.748;2022-12-18T13:49:35;-2.50;71.00
6627;DHT22;3349;49.830;8.748;2022-12-18T13:52:03;-2.60;70.80
6627;DHT22;3349;49.830;8.748;2022-12-18T13:54:42;-2.80;70.90
6627;DHT22;3349;49.830;8.748;2022-12-18T13:57:25;-2.80;71.80
6627;DHT22;3349;49.830;8.748;2022-12-18T13:59:54;-2.90;73.10
6627;DHT22;3349;49.830;8.748;2022-12-18T14:02:22;-2.90;73.60
6627;DHT22;3349;49.830;8.748;2022-12-18T14:04:50;-3.00;74.30
6627;DHT22;3349;49.830;8.748;2022-12-18T14:07:18;-3.00;75.40
6627;DHT22;3349;49.830;8.748;2022-12-18T14:09:48;-3.00;75.90
6627;DHT22;3349;49.830;8.748;2022-12-18T14:12:18;-3.00;75.70
6627;DHT22;3349;49.830;8.748;2022-12-18T14:15:09;-3.00;75.80
6627;DHT22;3349;49.830;8.748;2022-12-18T14:17:42;-3.00;76.20
6627;DHT22;3349;49.830;8.748;2022-12-18T14:20:13;-3.00;76.80
6627;DHT22;3349;49.830;8.748;2022-12-18T14:22:43;-3.00;77.00
6627;DHT22;3349;49.830;8.748;2022-12-18T14:25:18;-3.00;77.70
6627;DHT22;3349;49.830;8.748;2022-12-18T14:27:47;-3.00;77.10
6627;DHT22;3349;49.830;8.748;2022-12-18T14:30:31;-3.00;78.00
6627;DHT22;3349;49.830;8.748;2022-12-18T14:33:02;-3.10;77.90
6627;DHT22;3349;49.830;8.748;2022-12-18T14:35:30;-3.10;78.00
6627;DHT22;3349;49.830;8.748;2022-12-18T14:38:23;-3.10;78.50
6627;DHT22;3349;49.830;8.748;2022-12-18T14:40:53;-3.10;79.20
6627;DHT22;3349;49.830;8.748;2022-12-18T14:43:21;-3.20;79.50
6627;DHT22;3349;49.830;8.748;2022-12-18T14:45:49;-3.20;80.00
6627;DHT22;3349;49.830;8.748;2022-12-18T14:48:18;-3.20;80.00
6627;DHT22;3349;49.830;8.748;2022-12-18T14:50:55;-3.30;80.00
6627;DHT22;3349;49.830;8.748;2022-12-18T14:53:30;-3.30;80.00
6627;DHT22;3349;49.830;8.748;2022-12-18T14:55:58;-3.30;80.30
6627;DHT22;3349;49.830;8.748;2022-12-18T14:58:24;-3.30;80.90
6627;DHT22;3349;49.830;8.748;2022-12-18T15:00:52;-3.40;81.00
6627;DHT22;3349;49.830;8.748;2022-12-18T15:03:20;-3.40;80.90
6627;DHT22;3349;49.830;8.748;2022-12-18T15:05:47;-3.40;81.60
6627;DHT22;3349;49.830;8.748;2022-12-18T15:08:28;-3.40;81.50
6627;DHT22;3349;49.830;8.748;2022-12-18T15:10:56;-3.50;81.60
6627;DHT22;3349;49.830;8.748;2022-12-18T15:13:24;-3.50;81.80
6627;DHT22;3349;49.830;8.748;2022-12-18T15:15:53;-3.50;83.00
6627;DHT22;3349;49.830;8.748;2022-12-18T15:18:26;-3.50;83.10
6627;DHT22;3349;49.830;8.748;2022-12-18T15:20:56;-3.50;83.50
6627;DHT22;3349;49.830;8.748;2022-12-18T15:23:26;-3.60;83.30
6627;DHT22;3349;49.830;8.748;2022-12-18T15:25:57;-3.60;83.80
6627;DHT22;3349;49.830;8.748;2022-12-18T15:28:26;-3.60;84.10
6627;DHT22;3349;49.830;8.748;2022-12-18T15:31:01;-3.70;84.60
6627;DHT22;3349;49.830;8.748;2022-12-18T15:33:31;-3.70;84.60
6627;DHT22;3349;49.830;8.748;2022-12-18T15:35:59;-3.70;85.10
6627;DHT22;3349;49.830;8.748;2022-12-18T15:38:26;-3.70;85.70
6627;DHT22;3349;49.830;8.748;2022-12-18T15:40:53;-3.70;86.10
6627;DHT22;3349;49.830;8.748;2022-12-18T15:43:21;-3.70;86.70
6627;DHT22;3349;49.830;8.748;2022-12-18T15:46:01;-3.80;86.60
6627;DHT22;3349;49.830;8.748;2022-12-18T15:48:28;-3.80;87.00
6627;DHT22;3349;49.830;8.748;2022-12-18T15:50:56;-3.80;87.30
6627;DHT22;3349;49.830;8.748;2022-12-18T15:53:25;-3.80;87.40
6627;DHT22;3349;49.830;8.748;2022-12-18T15:55:53;-3.80;87.80
6627;DHT22;3349;49.830;8.748;2022-12-18T15:58:38;-3.80;87.80
6627;DHT22;3349;49.830;8.748;2022-12-18T16:01:08;-3.80;87.80
6627;DHT22;3349;49.830;8.748;2022-12-18T16:03:35;-3.80;87.80
6627;DHT22;3349;49.830;8.748;2022-12-18T16:06:02;-3.80;87.80
6627;DHT22;3349;49.830;8.748;2022-12-18T16:08:29;-3.80;87.90
6627;DHT22;3349;49.830;8.748;2022-12-18T16:10:56;-3.80;87.80
6627;DHT22;3349;49.830;8.748;2022-12-18T16:13:24;-3.80;87.80
6627;DHT22;3349;49.830;8.748;2022-12-18T16:15:50;-3.80;87.40
6627;DHT22;3349;49.830;8.748;2022-12-18T16:18:18;-3.80;87.50
6627;DHT22;3349;49.830;8.748;2022-12-18T16:20:45;-3.80;88.90